sensor_id;sensor_type;location;lat;lon;timestamp;temperature;humidity
67141;DHT22;54058;52.010;5.546;2023-01-15T00:01:03;8.60;94.30
67141;DHT22;54058;52.010;5.546;2023-01-15T00:03:29;8.60;94.30
67141;DHT22;54058;52.010;5.546;2023-01-15T00:05:56;8.60;94.30
67141;DHT22;54058;52.010;5.546;2023-01-15T00:08:25;8.60;94.30
67141;DHT22;54058;52.010;5.546;2023-01-15T00:10:51;8.60;94.30
67141;DHT22;54058;52.010;5.546;2023-01-15T00:13:16;8.60;94.20
67141;DHT22;54058;52.010;5.546;2023-01-15T00:15:42;8.60;94.20
67141;DHT22;54058;52.010;5.546;2023-01-15T00:18:08;8.60;94.20
67141;DHT22;54058;52.010;5.546;2023-01-15T00:20:34;8.60;94.20
67141;DHT22;54058;52.010;5.546;2023-01-15T00:22:59;8.60;94.10
67141;DHT22;54058;52.010;5.546;2023-01-15T00:25:25;8.60;94.10
67141;DHT22;54058;52.010;5.546;2023-01-15T00:28:12;8.60;94.20
67141;DHT22;54058;52.010;5.546;2023-01-15T00:30:40;8.60;94.20
67141;DHT22;54058;52.010;5.546;2023-01-15T00:33:07;8.60;94.20
67141;DHT22;54058;52.010;5.546;2023-01-15T00:35:33;8.60;94.20
67141;DHT22;54058;52.010;5.546;2023-01-15T00:37:58;8.60;94.20
67141;DHT22;54058;52.010;5.546;2023-01-15T00:40:24;8.60;94.10
67141;DHT22;54058;52.010;5.546;2023-01-15T00:42:50;8.60;94.10
67141;DHT22;54058;52.010;5.546;2023-01-15T00:45:16;8.60;94.10
67141;DHT22;54058;52.010;5.546;2023-01-15T00:47:43;8.60;94.00
67141;DHT22;54058;52.010;5.546;2023-01-15T00:50:12;8.70;94.30
67141;DHT22;54058;52.010;5.546;2023-01-15T00:52:37;8.60;93.90
67141;DHT22;54058;52.010;5.546;2023-01-15T00:55:04;8.60;94.00
67141;DHT22;54058;52.010;5.546;2023-01-15T00:57:30;8.60;94.00
67141;DHT22;54058;52.010;5.546;2023-01-15T00:59:58;8.60;93.70
67141;DHT22;54058;52.010;5.546;2023-01-15T01:02:36;8.60;93.70
67141;DHT22;54058;52.010;5.546;2023-01-15T01:05:27;8.60;93.70
67141;DHT22;54058;52.010;5.546;2023-01-15T01:07:52;8.60;93.70
67141;DHT22;54058;52.010;5.546;2023-01-15T01:10:18;8.60;93.80
67141;DHT22;54058;52.010;5.546;2023-01-15T01:12:44;8.60;93.10
67141;DHT22;54058;52.010;5.546;2023-01-15T01:15:10;8.50;93.40
67141;DHT22;54058;52.010;5.546;2023-01-15T01:17:39;8.50;93.40
67141;DHT22;54058;52.010;5.546;2023-01-15T01:20:05;8.50;93.20
67141;DHT22;54058;52.010;5.546;2023-01-15T01:22:31;8.50;93.40
67141;DHT22;54058;52.010;5.546;2023-01-15T01:24:58;8.50;93.20
67141;DHT22;54058;52.010;5.546;2023-01-15T01:27:23;8.50;93.20
67141;DHT22;54058;52.010;5.546;2023-01-15T01:29:49;8.40;93.10
67141;DHT22;54058;52.010;5.546;2023-01-15T01:32:15;8.40;93.10
67141;DHT22;54058;52.010;5.546;2023-01-15T01:34:40;8.40;93.10
67141;DHT22;54058;52.010;5.546;2023-01-15T01:37:06;8.40;93.20
67141;DHT22;54058;52.010;5.546;2023-01-15T01:39:32;8.40;93.30
67141;DHT22;54058;52.010;5.546;2023-01-15T01:41:57;8.40;93.50
67141;DHT22;54058;52.010;5.546;2023-01-15T01:47:02;8.40;93.40
67141;DHT22;54058;52.010;5.546;2023-01-15T01:49:30;8.40;93.20
67141;DHT22;54058;52.010;5.546;2023-01-15T01:52:00;8.40;93.20
67141;DHT22;54058;52.010;5.546;2023-01-15T01:54:28;8.40;93.30
67141;DHT22;54058;52.010;5.546;2023-01-15T01:56:55;8.40;93.00
67141;DHT22;54058;52.010;5.546;2023-01-15T01:59:22;8.40;93.20
67141;DHT22;54058;52.010;5.546;2023-01-15T02:01:50;8.40;93.30
67141;DHT22;54058;52.010;5.546;2023-01-15T02:04:17;8.40;93.10
67141;DHT22;54058;52.010;5.546;2023-01-15T02:06:44;8.30;92.90
67141;DHT22;54058;52.010;5.546;2023-01-15T02:09:10;8.30;93.10
67141;DHT22;54058;52.010;5.546;2023-01-15T02:11:36;8.30;92.90
67141;DHT22;54058;52.010;5.546;2023-01-15T02:14:16;8.30;93.00
67141;DHT22;54058;52.010;5.546;2023-01-15T02:17:05;8.30;93.10
67141;DHT22;54058;52.010;5.546;2023-01-15T02:22:23;8.30;93.00
67141;DHT22;54058;52.010;5.546;2023-01-15T02:27:38;8.30;93.10
67141;DHT22;54058;52.010;5.546;2023-01-15T02:30:09;8.20;93.00
67141;DHT22;54058;52.010;5.546;2023-01-15T02:32:45;8.20;92.80
67141;DHT22;54058;52.010;5.546;2023-01-15T02:36:23;8.20;93.00
67141;DHT22;54058;52.010;5.546;2023-01-15T02:38:20;8.20;92.70
67141;DHT22;54058;52.010;5.546;2023-01-15T02:40:50;8.10;92.60
67141;DHT22;54058;52.010;5.546;2023-01-15T02:43:18;8.10;92.80
67141;DHT22;54058;52.010;5.546;2023-01-15T02:45:49;8.10;92.90
67141;DHT22;54058;52.010;5.546;2023-01-15T02:48:19;8.10;92.90
67141;DHT22;54058;52.010;5.546;2023-01-15T02:50:52;8.10;92.90
67141;DHT22;54058;52.010;5.546;2023-01-15T02:53:25;8.10;93.00
67141;DHT22;54058;52.010;5.546;2023-01-15T02:55:56;8.10;92.90
67141;DHT22;54058;52.010;5.546;2023-01-15T02:58:29;8.10;92.80
67141;DHT22;54058;52.010;5.546;2023-01-15T03:00:58;8.10;92.80
67141;DHT22;54058;52.010;5.546;2023-01-15T03:03:41;8.10;92.70
67141;DHT22;54058;52.010;5.546;2023-01-15T03:06:34;8.10;92.40
67141;DHT22;54058;52.010;5.546;2023-01-15T03:09:01;8.10;92.60
67141;DHT22;54058;52.010;5.546;2023-01-15T03:11:27;8.10;92.80
67141;DHT22;54058;52.010;5.546;2023-01-15T03:14:10;8.10;92.70
67141;DHT22;54058;52.010;5.546;2023-01-15T03:17:01;8.10;92.60
67141;DHT22;54058;52.010;5.546;2023-01-15T03:22:22;7.90;92.40
67141;DHT22;54058;52.010;5.546;2023-01-15T03:24:56;8.00;92.60
67141;DHT22;54058;52.010;5.546;2023-01-15T03:27:22;8.00;92.60
67141;DHT22;54058;52.010;5.546;2023-01-15T03:29:51;8.00;92.70
67141;DHT22;54058;52.010;5.546;2023-01-15T03:32:17;8.00;92.50
67141;DHT22;54058;52.010;5.546;2023-01-15T03:34:53;8.00;92.60
67141;DHT22;54058;52.010;5.546;2023-01-15T03:37:20;7.90;92.40
67141;DHT22;54058;52.010;5.546;2023-01-15T03:39:47;7.90;92.50
67141;DHT22;54058;52.010;5.546;2023-01-15T03:44:51;7.90;92.50
67141;DHT22;54058;52.010;5.546;2023-01-15T03:47:41;7.90;92.50
67141;DHT22;54058;52.010;5.546;2023-01-15T03:53:27;8.00;92.60
67141;DHT22;54058;52.010;5.546;2023-01-15T03:56:18;8.00;92.60
67141;DHT22;54058;52.010;5.546;2023-01-15T03:58:51;8.00;92.60
67141;DHT22;54058;52.010;5.546;2023-01-15T04:01:20;8.00;92.70
67141;DHT22;54058;52.010;5.546;2023-01-15T04:03:48;8.00;92.70
67141;DHT22;54058;52.010;5.546;2023-01-15T04:06:14;8.10;92.70
67141;DHT22;54058;52.010;5.546;2023-01-15T04:08:41;8.00;91.90
67141;DHT22;54058;52.010;5.546;2023-01-15T04:11:08;8.00;92.10
67141;DHT22;54058;52.010;5.546;2023-01-15T04:13:34;7.90;92.40
67141;DHT22;54058;52.010;5.546;2023-01-15T04:16:00;7.90;92.40
67141;DHT22;54058;52.010;5.546;2023-01-15T04:18:26;7.90;92.40
67141;DHT22;54058;52.010;5.546;2023-01-15T04:20:51;7.80;92.40
67141;DHT22;54058;52.010;5.546;2023-01-15T04:23:19;7.80;92.40
67141;DHT22;54058;52.010;5.546;2023-01-15T04:25:44;7.80;92.40
67141;DHT22;54058;52.010;5.546;2023-01-15T04:28:10;7.70;92.20
67141;DHT22;54058;52.010;5.546;2023-01-15T04:30:37;7.70;92.10
67141;DHT22;54058;52.010;5.546;2023-01-15T04:33:03;7.70;92.30
67141;DHT22;54058;52.010;5.546;2023-01-15T04:35:29;7.70;92.50
67141;DHT22;54058;52.010;5.546;2023-01-15T04:37:58;7.60;92.50
67141;DHT22;54058;52.010;5.546;2023-01-15T04:40:25;7.60;92.50
67141;DHT22;54058;52.010;5.546;2023-01-15T04:43:10;7.60;92.60
67141;DHT22;54058;52.010;5.546;2023-01-15T04:45:55;7.60;92.40
67141;DHT22;54058;52.010;5.546;2023-01-15T04:48:21;7.60;92.50
67141;DHT22;54058;52.010;5.546;2023-01-15T04:50:46;7.60;92.40
67141;DHT22;54058;52.010;5.546;2023-01-15T04:53:12;7.60;92.50
67141;DHT22;54058;52.010;5.546;2023-01-15T04:55:38;7.60;92.10
67141;DHT22;54058;52.010;5.546;2023-01-15T04:58:03;7.60;92.30
67141;DHT22;54058;52.010;5.546;2023-01-15T05:00:29;7.50;92.40
67141;DHT22;54058;52.010;5.546;2023-01-15T05:02:55;7.60;92.50
67141;DHT22;54058;52.010;5.546;2023-01-15T05:05:21;7.60;92.20
67141;DHT22;54058;52.010;5.546;2023-01-15T05:07:46;7.50;92.70
67141;DHT22;54058;52.010;5.546;2023-01-15T05:10:12;7.50;92.40
67141;DHT22;54058;52.010;5.546;2023-01-15T05:12:38;7.50;92.50
67141;DHT22;54058;52.010;5.546;2023-01-15T05:15:04;7.50;92.30
67141;DHT22;54058;52.010;5.546;2023-01-15T05:17:31;7.50;92.40
67141;DHT22;54058;52.010;5.546;2023-01-15T05:19:57;7.50;92.20
67141;DHT22;54058;52.010;5.546;2023-01-15T05:22:23;7.50;92.50
67141;DHT22;54058;52.010;5.546;2023-01-15T05:24:48;7.60;92.30
67141;DHT22;54058;52.010;5.546;2023-01-15T05:27:14;7.50;92.20
67141;DHT22;54058;52.010;5.546;2023-01-15T05:29:40;7.60;92.30
67141;DHT22;54058;52.010;5.546;2023-01-15T05:32:05;7.50;92.20
67141;DHT22;54058;52.010;5.546;2023-01-15T05:34:31;7.50;92.30
67141;DHT22;54058;52.010;5.546;2023-01-15T05:36:56;7.50;92.30
67141;DHT22;54058;52.010;5.546;2023-01-15T05:39:22;7.50;92.20
67141;DHT22;54058;52.010;5.546;2023-01-15T05:41:48;7.50;92.30
67141;DHT22;54058;52.010;5.546;2023-01-15T05:46:50;7.50;92.30
67141;DHT22;54058;52.010;5.546;2023-01-15T05:49:19;7.50;92.30
67141;DHT22;54058;52.010;5.546;2023-01-15T05:51:46;7.50;92.30
67141;DHT22;54058;52.010;5.546;2023-01-15T05:54:15;7.50;92.30
67141;DHT22;54058;52.010;5.546;2023-01-15T05:56:41;7.50;92.30
67141;DHT22;54058;52.010;5.546;2023-01-15T05:59:07;7.60;92.40
67141;DHT22;54058;52.010;5.546;2023-01-15T06:01:34;7.50;92.30
67141;DHT22;54058;52.010;5.546;2023-01-15T06:04:01;7.50;92.20
67141;DHT22;54058;52.010;5.546;2023-01-15T06:06:27;7.40;92.00
67141;DHT22;54058;52.010;5.546;2023-01-15T06:08:53;7.40;92.00
67141;DHT22;54058;52.010;5.546;2023-01-15T06:11:18;7.40;92.10
67141;DHT22;54058;52.010;5.546;2023-01-15T06:13:44;7.40;92.10
67141;DHT22;54058;52.010;5.546;2023-01-15T06:16:10;7.30;92.10
67141;DHT22;54058;52.010;5.546;2023-01-15T06:18:37;7.30;92.00
67141;DHT22;54058;52.010;5.546;2023-01-15T06:21:12;7.30;92.10
67141;DHT22;54058;52.010;5.546;2023-01-15T06:23:41;7.30;92.10
67141;DHT22;54058;52.010;5.546;2023-01-15T06:26:11;7.30;92.00
67141;DHT22;54058;52.010;5.546;2023-01-15T06:28:37;7.20;92.10
67141;DHT22;54058;52.010;5.546;2023-01-15T06:31:07;7.20;92.10
67141;DHT22;54058;52.010;5.546;2023-01-15T06:33:33;7.20;92.10
67141;DHT22;54058;52.010;5.546;2023-01-15T06:36:07;7.10;91.90
67141;DHT22;54058;52.010;5.546;2023-01-15T06:38:34;7.10;91.90
67141;DHT22;54058;52.010;5.546;2023-01-15T06:41:01;7.10;91.90
67141;DHT22;54058;52.010;5.546;2023-01-15T06:43:26;7.10;91.80
67141;DHT22;54058;52.010;5.546;2023-01-15T06:46:11;7.10;91.50
67141;DHT22;54058;52.010;5.546;2023-01-15T06:48:55;7.00;91.60
67141;DHT22;54058;52.010;5.546;2023-01-15T06:51:21;7.00;91.40
67141;DHT22;54058;52.010;5.546;2023-01-15T06:53:47;7.00;91.30
67141;DHT22;54058;52.010;5.546;2023-01-15T06:56:13;6.90;91.30
67141;DHT22;54058;52.010;5.546;2023-01-15T06:58:42;6.90;91.50
67141;DHT22;54058;52.010;5.546;2023-01-15T07:01:14;6.90;91.60
67141;DHT22;54058;52.010;5.546;2023-01-15T07:03:48;6.90;91.50
67141;DHT22;54058;52.010;5.546;2023-01-15T07:06:14;6.90;91.60
67141;DHT22;54058;52.010;5.546;2023-01-15T07:08:40;6.90;91.70
67141;DHT22;54058;52.010;5.546;2023-01-15T07:11:07;6.90;91.60
67141;DHT22;54058;52.010;5.546;2023-01-15T07:13:34;6.80;91.70
67141;DHT22;54058;52.010;5.546;2023-01-15T07:16:01;6.80;91.50
67141;DHT22;54058;52.010;5.546;2023-01-15T07:18:28;6.80;91.70
67141;DHT22;54058;52.010;5.546;2023-01-15T07:20:58;6.80;91.80
67141;DHT22;54058;52.010;5.546;2023-01-15T07:23:24;6.80;91.90
67141;DHT22;54058;52.010;5.546;2023-01-15T07:25:54;6.80;91.80
67141;DHT22;54058;52.010;5.546;2023-01-15T07:28:21;6.80;91.80
67141;DHT22;54058;52.010;5.546;2023-01-15T07:30:47;6.70;91.80
67141;DHT22;54058;52.010;5.546;2023-01-15T07:33:13;6.80;91.90
67141;DHT22;54058;52.010;5.546;2023-01-15T07:35:38;6.70;91.90
67141;DHT22;54058;52.010;5.546;2023-01-15T07:38:04;6.70;91.80
67141;DHT22;54058;52.010;5.546;2023-01-15T07:40:30;6.70;91.90
67141;DHT22;54058;52.010;5.546;2023-01-15T07:42:55;6.80;92.10
67141;DHT22;54058;52.010;5.546;2023-01-15T07:45:41;6.80;91.80
67141;DHT22;54058;52.010;5.546;2023-01-15T07:48:25;6.70;91.60
67141;DHT22;54058;52.010;5.546;2023-01-15T07:51:10;6.70;91.80
67141;DHT22;54058;52.010;5.546;2023-01-15T07:53:35;6.70;91.60
67141;DHT22;54058;52.010;5.546;2023-01-15T07:56:01;6.60;91.80
67141;DHT22;54058;52.010;5.546;2023-01-15T07:58:27;6.70;91.80
67141;DHT22;54058;52.010;5.546;2023-01-15T08:00:52;6.70;91.90
67141;DHT22;54058;52.010;5.546;2023-01-15T08:03:18;6.70;91.90
67141;DHT22;54058;52.010;5.546;2023-01-15T08:05:44;6.70;91.80
67141;DHT22;54058;52.010;5.546;2023-01-15T08:08:14;6.70;91.90
67141;DHT22;54058;52.010;5.546;2023-01-15T08:10:40;6.70;91.90
67141;DHT22;54058;52.010;5.546;2023-01-15T08:13:25;6.70;91.80
67141;DHT22;54058;52.010;5.546;2023-01-15T08:16:09;6.70;91.80
67141;DHT22;54058;52.010;5.546;2023-01-15T08:18:36;6.70;91.50
67141;DHT22;54058;52.010;5.546;2023-01-15T08:21:01;6.70;91.70
67141;DHT22;54058;52.010;5.546;2023-01-15T08:23:27;6.80;91.70
67141;DHT22;54058;52.010;5.546;2023-01-15T08:25:53;6.70;91.70
67141;DHT22;54058;52.010;5.546;2023-01-15T08:28:19;6.70;91.60
67141;DHT22;54058;52.010;5.546;2023-01-15T08:30:44;6.80;91.60
67141;DHT22;54058;52.010;5.546;2023-01-15T08:33:10;6.80;91.60
67141;DHT22;54058;52.010;5.546;2023-01-15T08:35:35;6.80;91.70
67141;DHT22;54058;52.010;5.546;2023-01-15T08:38:05;6.90;91.60
67141;DHT22;54058;52.010;5.546;2023-01-15T08:40:31;6.90;91.60
67141;DHT22;54058;52.010;5.546;2023-01-15T08:42:56;6.90;91.50
67141;DHT22;54058;52.010;5.546;2023-01-15T08:45:22;7.00;91.50
67141;DHT22;54058;52.010;5.546;2023-01-15T08:47:48;7.00;91.40
67141;DHT22;54058;52.010;5.546;2023-01-15T08:50:13;7.00;91.30
67141;DHT22;54058;52.010;5.546;2023-01-15T08:52:39;7.00;91.30
67141;DHT22;54058;52.010;5.546;2023-01-15T08:55:05;7.10;91.30
67141;DHT22;54058;52.010;5.546;2023-01-15T08:57:32;7.10;91.40
67141;DHT22;54058;52.010;5.546;2023-01-15T08:59:57;7.20;91.40
67141;DHT22;54058;52.010;5.546;2023-01-15T09:02:23;7.30;91.30
67141;DHT22;54058;52.010;5.546;2023-01-15T09:04:48;7.40;91.00
67141;DHT22;54058;52.010;5.546;2023-01-15T09:07:16;7.40;91.30
67141;DHT22;54058;52.010;5.546;2023-01-15T09:09:42;7.50;91.20
67141;DHT22;54058;52.010;5.546;2023-01-15T09:12:07;7.50;91.40
67141;DHT22;54058;52.010;5.546;2023-01-15T09:14:33;7.50;91.10
67141;DHT22;54058;52.010;5.546;2023-01-15T09:16:59;7.60;90.80
67141;DHT22;54058;52.010;5.546;2023-01-15T09:19:25;7.50;91.10
67141;DHT22;54058;52.010;5.546;2023-01-15T09:21:50;7.60;90.90
67141;DHT22;54058;52.010;5.546;2023-01-15T09:24:16;7.70;90.90
67141;DHT22;54058;52.010;5.546;2023-01-15T09:26:41;7.70;91.10
67141;DHT22;54058;52.010;5.546;2023-01-15T09:29:07;7.80;91.30
67141;DHT22;54058;52.010;5.546;2023-01-15T09:31:34;7.90;90.90
67141;DHT22;54058;52.010;5.546;2023-01-15T09:34:00;7.90;90.80
67141;DHT22;54058;52.010;5.546;2023-01-15T09:36:28;8.00;90.80
67141;DHT22;54058;52.010;5.546;2023-01-15T09:38:55;8.00;90.80
67141;DHT22;54058;52.010;5.546;2023-01-15T09:41:22;8.00;90.70
67141;DHT22;54058;52.010;5.546;2023-01-15T09:44:28;8.00;90.00
67141;DHT22;54058;52.010;5.546;2023-01-15T09:54:55;8.20;90.50
67141;DHT22;54058;52.010;5.546;2023-01-15T09:57:24;8.20;90.30
67141;DHT22;54058;52.010;5.546;2023-01-15T09:59:53;8.20;90.20
67141;DHT22;54058;52.010;5.546;2023-01-15T10:05:21;8.20;90.40
67141;DHT22;54058;52.010;5.546;2023-01-15T10:10:26;8.30;89.90
67141;DHT22;54058;52.010;5.546;2023-01-15T10:12:59;8.30;90.00
67141;DHT22;54058;52.010;5.546;2023-01-15T10:15:43;8.30;88.90
67141;DHT22;54058;52.010;5.546;2023-01-15T10:18:21;8.30;90.20
67141;DHT22;54058;52.010;5.546;2023-01-15T10:21:06;8.30;90.00
67141;DHT22;54058;52.010;5.546;2023-01-15T10:23:45;8.30;89.70
67141;DHT22;54058;52.010;5.546;2023-01-15T10:37:31;8.30;87.30
67141;DHT22;54058;52.010;5.546;2023-01-15T10:45:55;8.40;89.00
67141;DHT22;54058;52.010;5.546;2023-01-15T10:56:46;8.60;89.00
67141;DHT22;54058;52.010;5.546;2023-01-15T11:01:53;8.60;84.40
67141;DHT22;54058;52.010;5.546;2023-01-15T11:04:19;8.60;87.80
67141;DHT22;54058;52.010;5.546;2023-01-15T11:06:45;8.70;88.40
67141;DHT22;54058;52.010;5.546;2023-01-15T11:09:22;8.70;86.70
67141;DHT22;54058;52.010;5.546;2023-01-15T11:12:04;8.70;87.40
67141;DHT22;54058;52.010;5.546;2023-01-15T11:14:42;8.80;87.20
67141;DHT22;54058;52.010;5.546;2023-01-15T11:20:32;8.80;87.50
67141;DHT22;54058;52.010;5.546;2023-01-15T11:23:10;8.80;87.50
67141;DHT22;54058;52.010;5.546;2023-01-15T11:25:38;8.90;88.00
67141;DHT22;54058;52.010;5.546;2023-01-15T11:28:09;8.90;88.00
67141;DHT22;54058;52.010;5.546;2023-01-15T11:30:39;8.90;86.70
67141;DHT22;54058;52.010;5.546;2023-01-15T11:33:23;8.80;87.20
67141;DHT22;54058;52.010;5.546;2023-01-15T11:35:54;8.90;87.70
67141;DHT22;54058;52.010;5.546;2023-01-15T11:38:24;8.90;89.00
67141;DHT22;54058;52.010;5.546;2023-01-15T11:40:55;8.90;89.30
67141;DHT22;54058;52.010;5.546;2023-01-15T11:43:24;9.00;89.80
67141;DHT22;54058;52.010;5.546;2023-01-15T11:49:13;9.00;88.90
67141;DHT22;54058;52.010;5.546;2023-01-15T11:52:00;8.90;89.30
67141;DHT22;54058;52.010;5.546;2023-01-15T11:54:28;8.80;90.00
67141;DHT22;54058;52.010;5.546;2023-01-15T11:56:54;8.70;90.00
67141;DHT22;54058;52.010;5.546;2023-01-15T11:59:21;8.70;90.40
67141;DHT22;54058;52.010;5.546;2023-01-15T12:01:58;8.60;90.50
67141;DHT22;54058;52.010;5.546;2023-01-15T12:06:57;8.60;90.90
67141;DHT22;54058;52.010;5.546;2023-01-15T12:09:39;8.60;90.90
67141;DHT22;54058;52.010;5.546;2023-01-15T12:15:32;8.70;89.10
67141;DHT22;54058;52.010;5.546;2023-01-15T12:29:39;8.70;86.20
67141;DHT22;54058;52.010;5.546;2023-01-15T12:32:12;8.70;88.60
67141;DHT22;54058;52.010;5.546;2023-01-15T12:34:57;8.60;90.30
67141;DHT22;54058;52.010;5.546;2023-01-15T12:37:51;8.60;90.50
67141;DHT22;54058;52.010;5.546;2023-01-15T12:40:23;8.60;90.00
67141;DHT22;54058;52.010;5.546;2023-01-15T12:42:52;8.50;89.90
67141;DHT22;54058;52.010;5.546;2023-01-15T12:45:40;8.40;90.00
67141;DHT22;54058;52.010;5.546;2023-01-15T12:48:20;8.30;90.30
67141;DHT22;54058;52.010;5.546;2023-01-15T12:50:53;8.10;90.60
67141;DHT22;54058;52.010;5.546;2023-01-15T13:01:46;7.90;91.40
67141;DHT22;54058;52.010;5.546;2023-01-15T13:04:24;7.80;91.40
67141;DHT22;54058;52.010;5.546;2023-01-15T13:06:57;7.80;91.30
67141;DHT22;54058;52.010;5.546;2023-01-15T13:10:09;7.80;91.50
67141;DHT22;54058;52.010;5.546;2023-01-15T13:12:16;7.70;91.50
67141;DHT22;54058;52.010;5.546;2023-01-15T13:14:43;7.70;91.40
67141;DHT22;54058;52.010;5.546;2023-01-15T13:20:49;7.80;91.60
67141;DHT22;54058;52.010;5.546;2023-01-15T13:31:23;7.70;91.10
67141;DHT22;54058;52.010;5.546;2023-01-15T13:33:59;7.70;91.30
67141;DHT22;54058;52.010;5.546;2023-01-15T13:36:37;7.70;91.20
67141;DHT22;54058;52.010;5.546;2023-01-15T13:39:07;7.90;91.30
67141;DHT22;54058;52.010;5.546;2023-01-15T13:41:36;7.90;90.90
67141;DHT22;54058;52.010;5.546;2023-01-15T13:44:22;7.90;91.00
67141;DHT22;54058;52.010;5.546;2023-01-15T13:46:59;7.90;91.10
67141;DHT22;54058;52.010;5.546;2023-01-15T13:49:31;7.90;91.10
67141;DHT22;54058;52.010;5.546;2023-01-15T13:52:00;7.80;91.20
67141;DHT22;54058;52.010;5.546;2023-01-15T13:54:30;7.80;91.30
67141;DHT22;54058;52.010;5.546;2023-01-15T13:57:31;7.80;91.30
67141;DHT22;54058;52.010;5.546;2023-01-15T13:59:58;7.80;91.20
67141;DHT22;54058;52.010;5.546;2023-01-15T14:02:32;7.90;91.60
67141;DHT22;54058;52.010;5.546;2023-01-15T14:04:59;7.90;91.30
67141;DHT22;54058;52.010;5.546;2023-01-15T14:07:35;7.90;91.20
67141;DHT22;54058;52.010;5.546;2023-01-15T14:15:36;8.00;91.20
67141;DHT22;54058;52.010;5.546;2023-01-15T14:18:24;8.10;91.20
67141;DHT22;54058;52.010;5.546;2023-01-15T14:29:27;8.00;90.80
67141;DHT22;54058;52.010;5.546;2023-01-15T14:34:56;8.00;90.80
67141;DHT22;54058;52.010;5.546;2023-01-15T14:37:39;7.90;90.90
67141;DHT22;54058;52.010;5.546;2023-01-15T14:40:27;7.90;90.70
67141;DHT22;54058;52.010;5.546;2023-01-15T14:42:55;7.90;90.80
67141;DHT22;54058;52.010;5.546;2023-01-15T14:45:40;8.00;91.30
67141;DHT22;54058;52.010;5.546;2023-01-15T14:50:42;7.90;90.70
67141;DHT22;54058;52.010;5.546;2023-01-15T14:55:42;7.90;90.80
67141;DHT22;54058;52.010;5.546;2023-01-15T15:03:55;7.80;91.10
67141;DHT22;54058;52.010;5.546;2023-01-15T15:06:22;7.80;91.20
67141;DHT22;54058;52.010;5.546;2023-01-15T15:08:49;7.70;91.20
67141;DHT22;54058;52.010;5.546;2023-01-15T15:11:38;7.70;91.10
67141;DHT22;54058;52.010;5.546;2023-01-15T15:14:25;7.70;91.10
67141;DHT22;54058;52.010;5.546;2023-01-15T15:16:52;7.70;91.10
67141;DHT22;54058;52.010;5.546;2023-01-15T15:19:41;7.70;91.00
67141;DHT22;54058;52.010;5.546;2023-01-15T15:22:13;7.70;91.00
67141;DHT22;54058;52.010;5.546;2023-01-15T15:24:49;7.60;90.90
67141;DHT22;54058;52.010;5.546;2023-01-15T15:27:20;7.60;90.90
67141;DHT22;54058;52.010;5.546;2023-01-15T15:29:46;7.60;91.00
67141;DHT22;54058;52.010;5.546;2023-01-15T15:32:22;7.60;90.90
67141;DHT22;54058;52.010;5.546;2023-01-15T15:34:50;7.50;90.80
67141;DHT22;54058;52.010;5.546;2023-01-15T15:37:23;7.60;91.00
67141;DHT22;54058;52.010;5.546;2023-01-15T15:42:33;7.50;91.10
67141;DHT22;54058;52.010;5.546;2023-01-15T15:45:22;7.50;91.20
67141;DHT22;54058;52.010;5.546;2023-01-15T15:51:00;7.60;91.30
67141;DHT22;54058;52.010;5.546;2023-01-15T15:53:27;7.60;91.30
67141;DHT22;54058;52.010;5.546;2023-01-15T15:55:53;7.60;91.30
67141;DHT22;54058;52.010;5.546;2023-01-15T15:58:25;7.60;91.40
67141;DHT22;54058;52.010;5.546;2023-01-15T16:00:52;7.60;91.40
67141;DHT22;54058;52.010;5.546;2023-01-15T16:03:29;7.60;91.50
67141;DHT22;54058;52.010;5.546;2023-01-15T16:06:04;7.60;91.50
67141;DHT22;54058;52.010;5.546;2023-01-15T16:08:32;7.60;91.50
67141;DHT22;54058;52.010;5.546;2023-01-15T16:11:09;7.60;91.50
67141;DHT22;54058;52.010;5.546;2023-01-15T16:13:40;7.60;91.50
67141;DHT22;54058;52.010;5.546;2023-01-15T16:16:08;7.70;91.60
67141;DHT22;54058;52.010;5.546;2023-01-15T16:18:37;7.70;91.50
67141;DHT22;54058;52.010;5.546;2023-01-15T16:21:07;7.70;91.50
67141;DHT22;54058;52.010;5.546;2023-01-15T16:23:33;7.70;91.60
67141;DHT22;54058;52.010;5.546;2023-01-15T16:26:02;7.70;91.60
67141;DHT22;54058;52.010;5.546;2023-01-15T16:28:36;7.70;91.50
67141;DHT22;54058;52.010;5.546;2023-01-15T16:31:04;7.70;91.50
67141;DHT22;54058;52.010;5.546;2023-01-15T16:33:30;7.70;91.50
67141;DHT22;54058;52.010;5.546;2023-01-15T16:35:59;7.70;91.50
67141;DHT22;54058;52.010;5.546;2023-01-15T16:38:31;7.60;91.50
67141;DHT22;54058;52.010;5.546;2023-01-15T16:40:58;7.60;91.40
67141;DHT22;54058;52.010;5.546;2023-01-15T16:43:25;7.60;91.50
67141;DHT22;54058;52.010;5.546;2023-01-15T16:48:36;7.60;91.40
67141;DHT22;54058;52.010;5.546;2023-01-15T16:53:51;7.60;91.30
67141;DHT22;54058;52.010;5.546;2023-01-15T16:56:47;7.60;91.40
67141;DHT22;54058;52.010;5.546;2023-01-15T16:59:17;7.60;91.40
67141;DHT22;54058;52.010;5.546;2023-01-15T17:01:47;7.60;91.40
67141;DHT22;54058;52.010;5.546;2023-01-15T17:04:26;7.60;91.40
67141;DHT22;54058;52.010;5.546;2023-01-15T17:06:58;7.60;91.30
67141;DHT22;54058;52.010;5.546;2023-01-15T17:09:24;7.60;91.40
67141;DHT22;54058;52.010;5.546;2023-01-15T17:11:51;7.60;91.40
67141;DHT22;54058;52.010;5.546;2023-01-15T17:14:19;7.60;91.50
67141;DHT22;54058;52.010;5.546;2023-01-15T17:16:45;7.60;91.20
67141;DHT22;54058;52.010;5.546;2023-01-15T17:19:10;7.60;91.10
67141;DHT22;54058;52.010;5.546;2023-01-15T17:21:37;7.50;91.40
67141;DHT22;54058;52.010;5.546;2023-01-15T17:24:06;7.50;91.50
67141;DHT22;54058;52.010;5.546;2023-01-15T17:26:33;7.60;91.80
67141;DHT22;54058;52.010;5.546;2023-01-15T17:28:59;7.60;91.50
67141;DHT22;54058;52.010;5.546;2023-01-15T17:31:33;7.60;91.40
67141;DHT22;54058;52.010;5.546;2023-01-15T17:34:00;7.60;91.40
67141;DHT22;54058;52.010;5.546;2023-01-15T17:36:27;7.60;91.40
67141;DHT22;54058;52.010;5.546;2023-01-15T17:38:54;7.60;91.40
67141;DHT22;54058;52.010;5.546;2023-01-15T17:41:20;7.60;91.30
67141;DHT22;54058;52.010;5.546;2023-01-15T17:43:47;7.50;91.20
67141;DHT22;54058;52.010;5.546;2023-01-15T17:46:12;7.50;91.30
67141;DHT22;54058;52.010;5.546;2023-01-15T17:48:39;7.50;91.40
67141;DHT22;54058;52.010;5.546;2023-01-15T17:51:08;7.50;91.40
67141;DHT22;54058;52.010;5.546;2023-01-15T17:53:34;7.50;91.40
67141;DHT22;54058;52.010;5.546;2023-01-15T17:56:01;7.50;91.40
67141;DHT22;54058;52.010;5.546;2023-01-15T17:58:45;7.50;91.20
67141;DHT22;54058;52.010;5.546;2023-01-15T18:01:32;7.40;91.30
67141;DHT22;54058;52.010;5.546;2023-01-15T18:04:32;7.40;91.40
67141;DHT22;54058;52.010;5.546;2023-01-15T18:07:20;7.50;91.40
67141;DHT22;54058;52.010;5.546;2023-01-15T18:09:47;7.50;91.40
67141;DHT22;54058;52.010;5.546;2023-01-15T18:12:14;7.60;91.40
67141;DHT22;54058;52.010;5.546;2023-01-15T18:14:40;7.50;91.20
67141;DHT22;54058;52.010;5.546;2023-01-15T18:17:06;7.40;91.30
67141;DHT22;54058;52.010;5.546;2023-01-15T18:19:31;7.40;91.40
67141;DHT22;54058;52.010;5.546;2023-01-15T18:21:57;7.40;91.40
67141;DHT22;54058;52.010;5.546;2023-01-15T18:24:23;7.40;91.30
67141;DHT22;54058;52.010;5.546;2023-01-15T18:26:49;7.30;91.10
67141;DHT22;54058;52.010;5.546;2023-01-15T18:29:18;7.30;91.30